SAS1720 EKCH-EFHK
Flight info
| Callsign | SAS1720 |
|---|---|
| Flight time | 1h 15m |
| Altitude | 37000 |
| Route | KEMAX N851 ROXEN DCT RIRIP Y364 LAKUT |
| Aircraft | A20N/M-SDE2E3FGHIRWXY/LB1 |
Departure
| Time | 2026-05-07 18:40 |
|---|---|
| Airport | Copenhagen Kastrup Airport (EKCH) |
Arrival
| Time | 2026-05-07 19:56 |
|---|---|
| Airport | Helsinki Vantaa Airport (EFHK) |
| Time | Latitude | Longitude | Altitude | Speed | Heading |
|---|---|---|---|---|---|
| 2026-05-07 17:38 | 55.62752 | 12.64477 | 21 ft | 0 kts | 102° |
| 2026-05-07 18:24 | 55.62753 | 12.64473 | 21 ft | 1 kts | 102° |
| 2026-05-07 18:24 | 55.62756 | 12.64448 | 21 ft | 2 kts | 106° |
| 2026-05-07 18:25 | 55.62760 | 12.64424 | 21 ft | 2 kts | 104° |
| 2026-05-07 18:25 | 55.62763 | 12.64403 | 21 ft | 0 kts | 106° |
| 2026-05-07 18:25 | 55.62764 | 12.64395 | 21 ft | 0 kts | 58° |
| 2026-05-07 18:25 | 55.62757 | 12.64388 | 21 ft | 2 kts | 14° |
| 2026-05-07 18:26 | 55.62743 | 12.64377 | 21 ft | 2 kts | 31° |
| 2026-05-07 18:26 | 55.62730 | 12.64365 | 21 ft | 2 kts | 26° |
| 2026-05-07 18:26 | 55.62717 | 12.64353 | 21 ft | 2 kts | 28° |
| 2026-05-07 18:26 | 55.62707 | 12.64344 | 21 ft | 1 kts | 27° |
| 2026-05-07 18:27 | 55.62693 | 12.64334 | 21 ft | 2 kts | 20° |
| 2026-05-07 18:27 | 55.62679 | 12.64324 | 21 ft | 2 kts | 22° |
| 2026-05-07 18:27 | 55.62665 | 12.64315 | 21 ft | 2 kts | 21° |
| 2026-05-07 18:27 | 55.62656 | 12.64308 | 21 ft | 2 kts | 22° |
| 2026-05-07 18:28 | 55.62639 | 12.64297 | 21 ft | 0 kts | 20° |
| 2026-05-07 18:28 | 55.62628 | 12.64284 | 21 ft | 2 kts | 37° |
| 2026-05-07 18:28 | 55.62615 | 12.64270 | 21 ft | 2 kts | 31° |
| 2026-05-07 18:28 | 55.62602 | 12.64255 | 21 ft | 2 kts | 45° |
| 2026-05-07 18:29 | 55.62595 | 12.64232 | 21 ft | 2 kts | 81° |
| 2026-05-07 18:29 | 55.62596 | 12.64206 | 21 ft | 2 kts | 114° |
| 2026-05-07 18:29 | 55.62604 | 12.64184 | 21 ft | 2 kts | 122° |
| 2026-05-07 18:29 | 55.62611 | 12.64164 | 21 ft | 0 kts | 120° |
| 2026-05-07 18:30 | 55.62611 | 12.64161 | 21 ft | 0 kts | 120° |
| 2026-05-07 18:33 | 55.62609 | 12.64167 | 21 ft | 1 kts | 120° |
| 2026-05-07 18:33 | 55.62602 | 12.64189 | 21 ft | 2 kts | 121° |
| 2026-05-07 18:33 | 55.62588 | 12.64219 | 21 ft | 3 kts | 153° |
| 2026-05-07 18:34 | 55.62561 | 12.64207 | 21 ft | 4 kts | 205° |
| 2026-05-07 18:34 | 55.62527 | 12.64197 | 21 ft | 3 kts | 157° |
| 2026-05-07 18:34 | 55.62506 | 12.64253 | 21 ft | 6 kts | 122° |
| 2026-05-07 18:34 | 55.62479 | 12.64324 | 21 ft | 7 kts | 126° |
| 2026-05-07 18:35 | 55.62446 | 12.64405 | 21 ft | 8 kts | 127° |
| 2026-05-07 18:35 | 55.62394 | 12.64451 | 21 ft | 9 kts | 189° |
| 2026-05-07 18:35 | 55.62329 | 12.64422 | 21 ft | 9 kts | 195° |
| 2026-05-07 18:35 | 55.62261 | 12.64388 | 21 ft | 10 kts | 196° |
| 2026-05-07 18:36 | 55.62190 | 12.64340 | 22 ft | 11 kts | 206° |
| 2026-05-07 18:36 | 55.62117 | 12.64277 | 22 ft | 11 kts | 206° |
| 2026-05-07 18:36 | 55.62041 | 12.64213 | 22 ft | 12 kts | 205° |
| 2026-05-07 18:36 | 55.61962 | 12.64148 | 22 ft | 12 kts | 205° |
| 2026-05-07 18:37 | 55.61882 | 12.64082 | 22 ft | 12 kts | 204° |
| 2026-05-07 18:37 | 55.61793 | 12.64075 | 22 ft | 13 kts | 176° |
| 2026-05-07 18:37 | 55.61757 | 12.64080 | 22 ft | 0 kts | 176° |
| 2026-05-07 18:37 | 55.61749 | 12.64081 | 22 ft | 1 kts | 176° |
| 2026-05-07 18:38 | 55.61731 | 12.64083 | 22 ft | 3 kts | 176° |
| 2026-05-07 18:38 | 55.61703 | 12.64086 | 22 ft | 4 kts | 176° |
| 2026-05-07 18:38 | 55.61666 | 12.64090 | 22 ft | 5 kts | 176° |
| 2026-05-07 18:38 | 55.61626 | 12.64074 | 22 ft | 6 kts | 219° |
| 2026-05-07 18:39 | 55.61588 | 12.64014 | 22 ft | 7 kts | 222° |
| 2026-05-07 18:39 | 55.61545 | 12.63948 | 23 ft | 9 kts | 221° |
| 2026-05-07 18:39 | 55.61396 | 12.63721 | 23 ft | 61 kts | 222° |
| 2026-05-07 18:39 | 55.60903 | 12.62967 | 23 ft | 124 kts | 220° |
| 2026-05-07 18:40 | 55.60139 | 12.61764 | 183 ft | 159 kts | 220° |
| 2026-05-07 18:40 | 55.59270 | 12.60513 | 696 ft | 166 kts | 219° |
| 2026-05-07 18:40 | 55.58345 | 12.59217 | 1294 ft | 173 kts | 221° |
| 2026-05-07 18:40 | 55.57412 | 12.57883 | 1919 ft | 177 kts | 223° |
| 2026-05-07 18:41 | 55.56412 | 12.56457 | 2304 ft | 194 kts | 218° |
| 2026-05-07 18:41 | 55.55190 | 12.55306 | 2701 ft | 211 kts | 203° |
| 2026-05-07 18:41 | 55.53724 | 12.54462 | 3075 ft | 233 kts | 195° |
| 2026-05-07 18:41 | 55.52067 | 12.54197 | 3481 ft | 252 kts | 167° |
| 2026-05-07 18:42 | 55.50544 | 12.55776 | 3925 ft | 265 kts | 126° |
| 2026-05-07 18:42 | 55.49911 | 12.58756 | 4719 ft | 262 kts | 88° |
| 2026-05-07 18:42 | 55.50398 | 12.61712 | 5655 ft | 258 kts | 54° |
| 2026-05-07 18:42 | 55.51741 | 12.63709 | 6490 ft | 261 kts | 33° |
| 2026-05-07 18:43 | 55.53329 | 12.65350 | 7225 ft | 269 kts | 32° |
| 2026-05-07 18:43 | 55.54929 | 12.67044 | 8074 ft | 271 kts | 33° |
| 2026-05-07 18:43 | 55.56497 | 12.68821 | 8931 ft | 273 kts | 34° |
| 2026-05-07 18:43 | 55.58040 | 12.70684 | 9784 ft | 274 kts | 36° |
| 2026-05-07 18:44 | 55.59590 | 12.72680 | 10643 ft | 275 kts | 37° |
| 2026-05-07 18:44 | 55.61124 | 12.74740 | 11160 ft | 289 kts | 37° |
| 2026-05-07 18:44 | 55.62763 | 12.76960 | 11550 ft | 306 kts | 37° |
| 2026-05-07 18:44 | 55.64468 | 12.79273 | 12152 ft | 315 kts | 37° |
| 2026-05-07 18:45 | 55.66204 | 12.81627 | 12885 ft | 319 kts | 37° |
| 2026-05-07 18:45 | 55.67959 | 12.84008 | 13600 ft | 323 kts | 37° |
| 2026-05-07 18:45 | 55.69750 | 12.86438 | 14351 ft | 327 kts | 37° |
| 2026-05-07 18:45 | 55.71547 | 12.88877 | 15031 ft | 331 kts | 37° |
| 2026-05-07 18:46 | 55.73380 | 12.91364 | 15702 ft | 335 kts | 37° |
| 2026-05-07 18:46 | 55.75246 | 12.93902 | 16363 ft | 339 kts | 36° |
| 2026-05-07 18:46 | 55.77133 | 12.96471 | 17006 ft | 343 kts | 36° |
| 2026-05-07 18:46 | 55.79031 | 12.99059 | 17628 ft | 347 kts | 36° |
| 2026-05-07 18:47 | 55.80959 | 13.01690 | 18239 ft | 351 kts | 36° |
| 2026-05-07 18:47 | 55.82890 | 13.04327 | 18831 ft | 355 kts | 36° |
| 2026-05-07 18:47 | 55.84833 | 13.06983 | 19431 ft | 358 kts | 36° |
| 2026-05-07 18:47 | 55.86802 | 13.09680 | 20021 ft | 362 kts | 36° |
| 2026-05-07 18:48 | 55.88799 | 13.12419 | 20608 ft | 365 kts | 37° |
| 2026-05-07 18:48 | 55.90800 | 13.15169 | 21171 ft | 367 kts | 36° |
| 2026-05-07 18:48 | 55.92833 | 13.17968 | 21724 ft | 370 kts | 36° |
| 2026-05-07 18:48 | 55.94867 | 13.20773 | 22264 ft | 373 kts | 36° |
| 2026-05-07 18:49 | 55.96933 | 13.23624 | 22802 ft | 376 kts | 36° |
| 2026-05-07 18:49 | 55.98980 | 13.26452 | 23316 ft | 379 kts | 36° |
| 2026-05-07 18:49 | 56.01062 | 13.29331 | 23804 ft | 382 kts | 36° |
| 2026-05-07 18:49 | 56.03171 | 13.32252 | 24315 ft | 385 kts | 36° |
| 2026-05-07 18:50 | 56.05281 | 13.35178 | 24827 ft | 387 kts | 36° |
| 2026-05-07 18:50 | 56.07391 | 13.38109 | 25330 ft | 389 kts | 36° |
| 2026-05-07 18:50 | 56.09533 | 13.41091 | 25825 ft | 391 kts | 36° |
| 2026-05-07 18:50 | 56.11676 | 13.44078 | 26309 ft | 393 kts | 37° |
| 2026-05-07 18:51 | 56.13857 | 13.47070 | 26778 ft | 394 kts | 35° |
| 2026-05-07 18:51 | 56.16071 | 13.49965 | 27220 ft | 397 kts | 34° |
| 2026-05-07 18:51 | 56.18296 | 13.52846 | 27647 ft | 399 kts | 34° |
| 2026-05-07 18:51 | 56.20551 | 13.55774 | 28059 ft | 401 kts | 34° |
| 2026-05-07 18:52 | 56.22827 | 13.58745 | 28471 ft | 403 kts | 34° |
| 2026-05-07 18:52 | 56.25066 | 13.61680 | 28876 ft | 405 kts | 34° |
| 2026-05-07 18:52 | 56.27354 | 13.64686 | 29271 ft | 407 kts | 34° |
| 2026-05-07 18:52 | 56.29642 | 13.67699 | 29640 ft | 409 kts | 35° |
| 2026-05-07 18:53 | 56.31941 | 13.70733 | 30002 ft | 411 kts | 35° |
| 2026-05-07 18:53 | 56.34232 | 13.73758 | 30372 ft | 413 kts | 35° |
| 2026-05-07 18:53 | 56.36533 | 13.76802 | 30735 ft | 414 kts | 35° |
| 2026-05-07 18:53 | 56.38848 | 13.79869 | 31078 ft | 415 kts | 35° |
| 2026-05-07 18:54 | 56.41164 | 13.82946 | 31420 ft | 416 kts | 35° |
| 2026-05-07 18:54 | 56.43480 | 13.86027 | 31830 ft | 415 kts | 35° |
| 2026-05-07 18:54 | 56.45802 | 13.89119 | 32233 ft | 414 kts | 35° |
| 2026-05-07 18:54 | 56.48081 | 13.92166 | 32601 ft | 413 kts | 35° |
| 2026-05-07 18:55 | 56.50389 | 13.95254 | 32951 ft | 413 kts | 35° |
| 2026-05-07 18:55 | 56.52721 | 13.98376 | 33303 ft | 412 kts | 35° |
| 2026-05-07 18:55 | 56.55004 | 14.01478 | 33639 ft | 412 kts | 37° |
| 2026-05-07 18:55 | 56.57187 | 14.04764 | 33973 ft | 411 kts | 40° |
| 2026-05-07 18:56 | 56.59296 | 14.08293 | 34298 ft | 411 kts | 41° |
| 2026-05-07 18:56 | 56.61332 | 14.11827 | 34597 ft | 410 kts | 42° |
| 2026-05-07 18:56 | 56.63388 | 14.15422 | 34888 ft | 409 kts | 42° |
| 2026-05-07 18:56 | 56.65428 | 14.18993 | 35093 ft | 409 kts | 42° |
| 2026-05-07 18:57 | 56.67478 | 14.22589 | 35254 ft | 410 kts | 42° |
| 2026-05-07 18:57 | 56.69513 | 14.26159 | 35374 ft | 412 kts | 42° |
| 2026-05-07 18:57 | 56.71586 | 14.29802 | 35488 ft | 415 kts | 42° |
| 2026-05-07 18:57 | 56.73657 | 14.33443 | 35610 ft | 417 kts | 42° |
| 2026-05-07 18:58 | 56.75736 | 14.37106 | 35735 ft | 418 kts | 42° |
| 2026-05-07 18:58 | 56.77809 | 14.40761 | 35879 ft | 419 kts | 42° |
| 2026-05-07 18:58 | 56.79900 | 14.44455 | 35992 ft | 421 kts | 42° |
| 2026-05-07 18:59 | 56.84123 | 14.51933 | 36180 ft | 424 kts | 42° |
| 2026-05-07 18:59 | 56.88338 | 14.59426 | 36355 ft | 427 kts | 42° |
| 2026-05-07 18:59 | 56.90477 | 14.63237 | 36485 ft | 429 kts | 42° |
| 2026-05-07 19:00 | 56.92606 | 14.67033 | 36594 ft | 431 kts | 43° |
| 2026-05-07 19:00 | 56.94749 | 14.70864 | 36713 ft | 432 kts | 43° |
| 2026-05-07 19:00 | 56.96897 | 14.74711 | 36819 ft | 434 kts | 43° |
| 2026-05-07 19:00 | 56.99065 | 14.78598 | 36946 ft | 435 kts | 43° |
| 2026-05-07 19:01 | 57.01210 | 14.82451 | 37069 ft | 437 kts | 43° |
| 2026-05-07 19:01 | 57.05564 | 14.90292 | 37089 ft | 438 kts | 43° |
| 2026-05-07 19:02 | 57.09882 | 14.98102 | 37084 ft | 440 kts | 43° |
| 2026-05-07 19:02 | 57.14254 | 15.06032 | 37083 ft | 440 kts | 43° |
| 2026-05-07 19:03 | 57.18607 | 15.13959 | 37084 ft | 441 kts | 43° |
| 2026-05-07 19:03 | 57.22929 | 15.21852 | 37085 ft | 441 kts | 43° |
| 2026-05-07 19:04 | 57.27281 | 15.29827 | 37078 ft | 440 kts | 43° |
| 2026-05-07 19:04 | 57.31634 | 15.37835 | 37084 ft | 442 kts | 43° |
| 2026-05-07 19:05 | 57.35953 | 15.45807 | 37083 ft | 442 kts | 43° |
| 2026-05-07 19:05 | 57.40310 | 15.53876 | 37095 ft | 443 kts | 43° |
| 2026-05-07 19:06 | 57.44631 | 15.61909 | 37095 ft | 442 kts | 43° |
| 2026-05-07 19:06 | 57.51136 | 15.74058 | 37099 ft | 443 kts | 43° |
| 2026-05-07 19:07 | 57.55482 | 15.82207 | 37097 ft | 443 kts | 43° |
| 2026-05-07 19:07 | 57.59806 | 15.90348 | 37101 ft | 444 kts | 43° |
| 2026-05-07 19:08 | 57.64133 | 15.98520 | 37096 ft | 444 kts | 43° |
| 2026-05-07 19:08 | 57.68442 | 16.06691 | 37100 ft | 445 kts | 43° |
| 2026-05-07 19:09 | 57.72756 | 16.14902 | 37111 ft | 445 kts | 43° |
| 2026-05-07 19:09 | 57.77074 | 16.23150 | 37110 ft | 445 kts | 43° |
| 2026-05-07 19:10 | 57.81381 | 16.31403 | 37110 ft | 446 kts | 43° |
| 2026-05-07 19:10 | 57.85725 | 16.39757 | 37108 ft | 447 kts | 43° |
| 2026-05-07 19:11 | 57.90021 | 16.48050 | 37118 ft | 447 kts | 43° |
| 2026-05-07 19:11 | 57.94339 | 16.56419 | 37120 ft | 448 kts | 43° |
| 2026-05-07 19:12 | 57.98651 | 16.64806 | 37114 ft | 448 kts | 43° |
| 2026-05-07 19:12 | 58.02974 | 16.73246 | 37114 ft | 448 kts | 44° |
| 2026-05-07 19:13 | 58.07259 | 16.81646 | 37111 ft | 450 kts | 43° |
| 2026-05-07 19:13 | 58.11588 | 16.90159 | 37120 ft | 450 kts | 43° |
| 2026-05-07 19:14 | 58.15894 | 16.98657 | 37116 ft | 450 kts | 43° |
| 2026-05-07 19:14 | 58.20199 | 17.07184 | 37104 ft | 450 kts | 43° |
| 2026-05-07 19:15 | 58.24517 | 17.15773 | 37117 ft | 451 kts | 43° |
| 2026-05-07 19:15 | 58.28831 | 17.24388 | 37116 ft | 452 kts | 43° |
| 2026-05-07 19:16 | 58.33137 | 17.33017 | 37117 ft | 453 kts | 43° |
| 2026-05-07 19:16 | 58.37471 | 17.41736 | 37122 ft | 453 kts | 43° |
| 2026-05-07 19:17 | 58.41771 | 17.50417 | 37121 ft | 454 kts | 43° |
| 2026-05-07 19:17 | 58.46097 | 17.59189 | 37127 ft | 455 kts | 43° |
| 2026-05-07 19:18 | 58.50410 | 17.67963 | 37130 ft | 456 kts | 44° |
| 2026-05-07 19:18 | 58.54719 | 17.76765 | 37133 ft | 457 kts | 44° |
| 2026-05-07 19:19 | 58.59051 | 17.85647 | 37131 ft | 457 kts | 44° |
| 2026-05-07 19:19 | 58.63073 | 17.95069 | 37133 ft | 461 kts | 53° |
| 2026-05-07 19:20 | 58.66571 | 18.05358 | 37130 ft | 462 kts | 54° |
| 2026-05-07 19:20 | 58.70050 | 18.15674 | 37126 ft | 462 kts | 54° |
| 2026-05-07 19:21 | 58.73558 | 18.26001 | 37132 ft | 462 kts | 54° |
| 2026-05-07 19:21 | 58.77051 | 18.36287 | 37134 ft | 464 kts | 53° |
| 2026-05-07 19:22 | 58.80564 | 18.46661 | 37126 ft | 465 kts | 53° |
| 2026-05-07 19:22 | 58.84082 | 18.57088 | 37131 ft | 465 kts | 53° |
| 2026-05-07 19:23 | 58.87605 | 18.67574 | 37131 ft | 466 kts | 54° |
| 2026-05-07 19:23 | 58.91103 | 18.78037 | 37123 ft | 466 kts | 54° |
| 2026-05-07 19:24 | 58.94585 | 18.88491 | 37143 ft | 467 kts | 54° |
| 2026-05-07 19:24 | 58.98072 | 18.99019 | 37133 ft | 468 kts | 54° |
| 2026-05-07 19:25 | 59.01583 | 19.09657 | 37125 ft | 468 kts | 54° |
| 2026-05-07 19:25 | 59.05072 | 19.20281 | 37129 ft | 468 kts | 54° |
| 2026-05-07 19:26 | 59.08532 | 19.30855 | 37123 ft | 469 kts | 54° |
| 2026-05-07 19:26 | 59.12019 | 19.41567 | 37137 ft | 469 kts | 54° |
| 2026-05-07 19:27 | 59.15481 | 19.52255 | 37125 ft | 469 kts | 54° |
| 2026-05-07 19:27 | 59.18935 | 19.62964 | 37146 ft | 469 kts | 54° |
| 2026-05-07 19:28 | 59.22406 | 19.73772 | 37109 ft | 470 kts | 55° |
| 2026-05-07 19:28 | 59.24139 | 19.79190 | 37284 ft | 470 kts | 55° |
| 2026-05-07 19:28 | 59.25858 | 19.84574 | 37112 ft | 471 kts | 55° |
| 2026-05-07 19:29 | 59.27575 | 19.89968 | 37214 ft | 471 kts | 55° |
| 2026-05-07 19:29 | 59.29283 | 19.95347 | 37168 ft | 470 kts | 55° |
| 2026-05-07 19:29 | 59.32722 | 20.06204 | 37147 ft | 470 kts | 55° |
| 2026-05-07 19:30 | 59.36132 | 20.17029 | 37130 ft | 470 kts | 55° |
| 2026-05-07 19:30 | 59.39549 | 20.27908 | 37135 ft | 470 kts | 55° |
| 2026-05-07 19:31 | 59.42953 | 20.38812 | 37131 ft | 471 kts | 55° |
| 2026-05-07 19:31 | 59.46373 | 20.49817 | 37141 ft | 472 kts | 55° |
| 2026-05-07 19:32 | 59.49761 | 20.60770 | 37132 ft | 472 kts | 55° |
| 2026-05-07 19:32 | 59.53151 | 20.71775 | 37128 ft | 473 kts | 56° |
| 2026-05-07 19:33 | 59.56553 | 20.82883 | 37126 ft | 474 kts | 56° |
| 2026-05-07 19:33 | 59.59913 | 20.93899 | 37139 ft | 473 kts | 56° |
| 2026-05-07 19:34 | 59.63254 | 21.05131 | 37134 ft | 475 kts | 60° |
| 2026-05-07 19:34 | 59.66057 | 21.16818 | 36538 ft | 477 kts | 63° |
| 2026-05-07 19:35 | 59.67427 | 21.22810 | 35793 ft | 483 kts | 63° |
| 2026-05-07 19:35 | 59.68811 | 21.28821 | 35231 ft | 484 kts | 62° |
| 2026-05-07 19:35 | 59.70197 | 21.34814 | 34627 ft | 487 kts | 62° |
| 2026-05-07 19:35 | 59.71610 | 21.40888 | 34034 ft | 489 kts | 62° |
| 2026-05-07 19:36 | 59.73033 | 21.46998 | 33385 ft | 493 kts | 62° |
| 2026-05-07 19:36 | 59.74466 | 21.53154 | 32767 ft | 494 kts | 61° |
| 2026-05-07 19:36 | 59.75876 | 21.59227 | 32216 ft | 491 kts | 61° |
| 2026-05-07 19:36 | 59.77297 | 21.65359 | 31666 ft | 489 kts | 62° |
| 2026-05-07 19:37 | 59.78717 | 21.71497 | 30765 ft | 496 kts | 62° |
| 2026-05-07 19:37 | 59.80147 | 21.77689 | 29723 ft | 502 kts | 62° |
| 2026-05-07 19:37 | 59.81615 | 21.84060 | 28654 ft | 507 kts | 62° |
| 2026-05-07 19:37 | 59.83052 | 21.90320 | 27815 ft | 506 kts | 62° |
| 2026-05-07 19:38 | 59.84517 | 21.96736 | 26810 ft | 509 kts | 63° |
| 2026-05-07 19:38 | 59.85960 | 22.03062 | 25704 ft | 513 kts | 63° |
| 2026-05-07 19:38 | 59.87423 | 22.09503 | 24789 ft | 513 kts | 63° |
| 2026-05-07 19:38 | 59.88891 | 22.15990 | 23766 ft | 515 kts | 63° |
| 2026-05-07 19:39 | 59.90332 | 22.22379 | 22660 ft | 518 kts | 63° |
| 2026-05-07 19:39 | 59.91796 | 22.28899 | 21847 ft | 513 kts | 63° |
| 2026-05-07 19:39 | 59.93229 | 22.35300 | 21158 ft | 506 kts | 63° |
| 2026-05-07 19:39 | 59.94647 | 22.41652 | 20468 ft | 498 kts | 62° |
| 2026-05-07 19:40 | 59.96046 | 22.47934 | 19765 ft | 492 kts | 62° |
| 2026-05-07 19:40 | 59.97414 | 22.54099 | 19050 ft | 485 kts | 62° |
| 2026-05-07 19:40 | 59.98759 | 22.60164 | 18366 ft | 479 kts | 62° |
| 2026-05-07 19:40 | 60.00099 | 22.66219 | 17646 ft | 473 kts | 63° |
| 2026-05-07 19:41 | 60.01400 | 22.72103 | 17090 ft | 465 kts | 63° |
| 2026-05-07 19:41 | 60.02704 | 22.78028 | 16833 ft | 466 kts | 63° |
| 2026-05-07 19:41 | 60.03986 | 22.83865 | 16587 ft | 464 kts | 63° |
| 2026-05-07 19:41 | 60.05290 | 22.89829 | 16293 ft | 462 kts | 63° |
| 2026-05-07 19:42 | 60.06570 | 22.95701 | 16014 ft | 460 kts | 63° |
| 2026-05-07 19:42 | 60.07845 | 23.01571 | 15643 ft | 457 kts | 63° |
| 2026-05-07 19:42 | 60.09096 | 23.07344 | 15249 ft | 453 kts | 63° |
| 2026-05-07 19:42 | 60.10339 | 23.13091 | 14802 ft | 450 kts | 63° |
| 2026-05-07 19:43 | 60.11583 | 23.18859 | 14333 ft | 446 kts | 63° |
| 2026-05-07 19:43 | 60.12796 | 23.24499 | 13899 ft | 442 kts | 63° |
| 2026-05-07 19:43 | 60.14013 | 23.30168 | 13465 ft | 438 kts | 63° |
| 2026-05-07 19:43 | 60.15199 | 23.35707 | 13028 ft | 433 kts | 64° |
| 2026-05-07 19:44 | 60.16392 | 23.41299 | 12580 ft | 429 kts | 64° |
| 2026-05-07 19:44 | 60.17550 | 23.46748 | 12163 ft | 424 kts | 64° |
| 2026-05-07 19:44 | 60.18695 | 23.52147 | 11719 ft | 420 kts | 64° |
| 2026-05-07 19:44 | 60.19830 | 23.57514 | 11271 ft | 417 kts | 64° |
| 2026-05-07 19:45 | 60.20956 | 23.62845 | 10838 ft | 412 kts | 64° |
| 2026-05-07 19:45 | 60.22074 | 23.68154 | 10412 ft | 408 kts | 65° |
| 2026-05-07 19:45 | 60.23161 | 23.73331 | 10121 ft | 404 kts | 65° |
| 2026-05-07 19:45 | 60.24247 | 23.78514 | 10094 ft | 404 kts | 65° |
| 2026-05-07 19:46 | 60.25333 | 23.83719 | 10096 ft | 404 kts | 65° |
| 2026-05-07 19:46 | 60.26408 | 23.88882 | 9937 ft | 398 kts | 65° |
| 2026-05-07 19:46 | 60.27477 | 23.94020 | 9244 ft | 395 kts | 66° |
| 2026-05-07 19:46 | 60.28525 | 23.99075 | 8487 ft | 392 kts | 66° |
| 2026-05-07 19:47 | 60.29567 | 24.04115 | 7816 ft | 387 kts | 66° |
| 2026-05-07 19:47 | 60.30588 | 24.09069 | 7280 ft | 380 kts | 66° |
| 2026-05-07 19:47 | 60.31603 | 24.14004 | 7028 ft | 380 kts | 66° |
| 2026-05-07 19:47 | 60.32604 | 24.18881 | 6645 ft | 377 kts | 66° |
| 2026-05-07 19:48 | 60.33614 | 24.23813 | 6231 ft | 374 kts | 66° |
| 2026-05-07 19:48 | 60.34594 | 24.28620 | 5806 ft | 371 kts | 65° |
| 2026-05-07 19:48 | 60.35558 | 24.33359 | 5322 ft | 362 kts | 65° |
| 2026-05-07 19:48 | 60.36499 | 24.37991 | 5004 ft | 348 kts | 65° |
| 2026-05-07 19:49 | 60.37392 | 24.42399 | 4977 ft | 327 kts | 65° |
| 2026-05-07 19:49 | 60.38216 | 24.46480 | 4973 ft | 308 kts | 65° |
| 2026-05-07 19:49 | 60.39003 | 24.50375 | 4976 ft | 289 kts | 65° |
| 2026-05-07 19:49 | 60.39744 | 24.54051 | 4819 ft | 278 kts | 64° |
| 2026-05-07 19:50 | 60.40451 | 24.57562 | 4546 ft | 261 kts | 64° |
| 2026-05-07 19:50 | 60.41108 | 24.60836 | 4248 ft | 246 kts | 64° |
| 2026-05-07 19:50 | 60.41740 | 24.63985 | 3800 ft | 239 kts | 64° |
| 2026-05-07 19:50 | 60.42352 | 24.67043 | 3239 ft | 230 kts | 64° |
| 2026-05-07 19:51 | 60.42945 | 24.70004 | 2500 ft | 228 kts | 64° |
| 2026-05-07 19:51 | 60.43528 | 24.72920 | 2077 ft | 220 kts | 63° |
| 2026-05-07 19:51 | 60.44072 | 24.75662 | 1976 ft | 200 kts | 63° |
| 2026-05-07 19:51 | 60.44583 | 24.78238 | 1972 ft | 192 kts | 63° |
| 2026-05-07 19:52 | 60.45079 | 24.80718 | 1980 ft | 189 kts | 62° |
| 2026-05-07 19:52 | 60.45449 | 24.83260 | 1969 ft | 195 kts | 86° |
| 2026-05-07 19:52 | 60.44923 | 24.85834 | 2044 ft | 208 kts | 132° |
| 2026-05-07 19:52 | 60.43655 | 24.87137 | 2034 ft | 210 kts | 163° |
| 2026-05-07 19:53 | 60.42250 | 24.87913 | 1996 ft | 202 kts | 163° |
| 2026-05-07 19:53 | 60.40975 | 24.88736 | 1878 ft | 185 kts | 160° |
| 2026-05-07 19:53 | 60.39775 | 24.89566 | 1619 ft | 175 kts | 159° |
| 2026-05-07 19:53 | 60.38711 | 24.90590 | 1407 ft | 163 kts | 150° |
| 2026-05-07 19:54 | 60.37776 | 24.91667 | 1187 ft | 150 kts | 152° |
| 2026-05-07 19:54 | 60.36868 | 24.92568 | 975 ft | 144 kts | 153° |
| 2026-05-07 19:54 | 60.35986 | 24.93524 | 822 ft | 142 kts | 154° |
| 2026-05-07 19:54 | 60.35095 | 24.94374 | 635 ft | 140 kts | 155° |
| 2026-05-07 19:55 | 60.34226 | 24.95247 | 464 ft | 138 kts | 155° |
| 2026-05-07 19:55 | 60.33383 | 24.96104 | 290 ft | 136 kts | 155° |
| 2026-05-07 19:55 | 60.32556 | 24.96944 | 171 ft | 122 kts | 155° |
| 2026-05-07 19:55 | 60.31946 | 24.97562 | 160 ft | 74 kts | 153° |
| 2026-05-07 19:56 | 60.31639 | 24.97877 | 157 ft | 27 kts | 152° |
| 2026-05-07 19:56 | 60.31509 | 24.97992 | 157 ft | 17 kts | 176° |
| 2026-05-07 19:56 | 60.31427 | 24.97912 | 158 ft | 10 kts | 242° |
| 2026-05-07 19:56 | 60.31416 | 24.97866 | 159 ft | 0 kts | 245° |
| 2026-05-07 19:58 | 60.31416 | 24.97867 | 159 ft | 0 kts | 245° |
| 2026-05-07 19:59 | 60.31410 | 24.97835 | 160 ft | 3 kts | 247° |
| 2026-05-07 19:59 | 60.31406 | 24.97792 | 161 ft | 5 kts | 294° |
| 2026-05-07 19:59 | 60.31455 | 24.97722 | 161 ft | 12 kts | 334° |
| 2026-05-07 19:59 | 60.31522 | 24.97645 | 161 ft | 10 kts | 307° |
| 2026-05-07 20:00 | 60.31528 | 24.97514 | 164 ft | 8 kts | 300° |
| 2026-05-07 20:00 | 60.31572 | 24.97450 | 164 ft | 6 kts | 316° |
| 2026-05-07 20:00 | 60.31569 | 24.97368 | 164 ft | 4 kts | 240° |
| 2026-05-07 20:00 | 60.31559 | 24.97330 | 164 ft | 0 kts | 244° |
| 2026-05-07 20:01 | 60.31558 | 24.97324 | 164 ft | 0 kts | 244° |